createdAt,value
2022-12-13T00:04:28.334Z,27.30
2022-12-13T00:10:43.137Z,28.35
2022-12-13T00:20:18.687Z,26.65
2022-12-13T00:23:22.493Z,26.50
2022-12-13T00:29:19.165Z,26.23
2022-12-13T00:32:00.688Z,27.13
2022-12-13T00:41:05.893Z,25.67
2022-12-13T00:43:58.182Z,27.00
2022-12-13T00:46:42.257Z,24.98
2022-12-13T00:49:36.976Z,27.13
2022-12-13T00:52:19.416Z,25.17
2022-12-13T00:55:07.167Z,23.98
2022-12-13T01:01:03.303Z,26.50
2022-12-13T01:04:06.356Z,24.27
2022-12-13T01:06:57.629Z,24.70
2022-12-13T01:12:56.454Z,23.70
2022-12-13T01:16:00.170Z,24.63
2022-12-13T01:18:50.777Z,25.08
2022-12-13T01:21:51.889Z,24.33
2022-12-13T01:27:14.793Z,24.80
2022-12-13T01:30:14.874Z,25.02
2022-12-13T01:33:14.279Z,24.70
2022-12-13T01:35:44.007Z,24.33
2022-12-13T01:38:26.222Z,25.88
2022-12-13T01:41:01.877Z,24.50
2022-12-13T01:44:31.526Z,22.95
2022-12-13T01:50:30.921Z,24.73
2022-12-13T01:55:52.470Z,24.05
2022-12-13T02:01:36.911Z,23.67
2022-12-13T02:04:10.377Z,24.15
2022-12-13T02:07:01.112Z,24.02
2022-12-13T02:09:40.389Z,24.17
2022-12-13T02:12:14.444Z,23.33
2022-12-13T02:14:51.017Z,25.20
2022-12-13T02:17:36.107Z,23.10
2022-12-13T02:20:54.336Z,23.17
2022-12-13T02:24:15.194Z,24.73
2022-12-13T02:27:30.635Z,16.52
2022-12-13T02:30:39.043Z,23.23
2022-12-13T02:33:32.400Z,23.30
2022-12-13T02:36:19.684Z,23.27
2022-12-13T02:38:54.791Z,23.83
2022-12-13T02:41:33.049Z,23.58
2022-12-13T02:44:22.253Z,22.48
2022-12-13T02:47:00.856Z,24.83
2022-12-13T02:49:39.819Z,22.17
2022-12-13T02:52:22.344Z,23.85
2022-12-13T02:55:08.121Z,21.42
2022-12-13T02:57:50.756Z,23.05
2022-12-13T03:00:32.350Z,23.60
2022-12-13T03:03:21.275Z,22.92
2022-12-13T03:06:01.041Z,22.65
2022-12-13T03:08:47.621Z,23.27
2022-12-13T03:11:30.482Z,22.27
2022-12-13T03:14:11.743Z,21.90
2022-12-13T03:16:44.041Z,22.35
2022-12-13T03:19:14.105Z,22.15
2022-12-13T03:22:05.531Z,23.50
2022-12-13T03:24:34.683Z,21.65
2022-12-13T03:27:09.864Z,21.02
2022-12-13T03:29:39.558Z,22.77
2022-12-13T03:32:06.410Z,24.48
2022-12-13T03:35:00.645Z,21.67
2022-12-13T03:37:37.785Z,21.77
2022-12-13T03:40:30.751Z,21.95
2022-12-13T03:43:13.455Z,22.10
2022-12-13T03:45:49.686Z,21.98
2022-12-13T03:48:23.917Z,21.38
2022-12-13T03:50:56.827Z,22.02
2022-12-13T03:53:33.242Z,21.85
2022-12-13T03:56:09.428Z,23.15
2022-12-13T03:58:38.558Z,20.88
2022-12-13T04:01:15.432Z,21.35
2022-12-13T04:03:47.016Z,20.30
2022-12-13T04:06:33.060Z,21.45
2022-12-13T04:09:00.460Z,21.15
2022-12-13T04:11:35.412Z,21.35
2022-12-13T04:14:02.490Z,21.05
2022-12-13T04:16:38.734Z,21.73
2022-12-13T04:19:13.681Z,22.88
2022-12-13T04:21:44.097Z,22.25
2022-12-13T04:24:16.555Z,21.98
2022-12-13T04:26:50.404Z,20.98
2022-12-13T04:32:26.772Z,21.83
2022-12-13T04:35:00.859Z,22.23
2022-12-13T04:37:46.934Z,22.48
2022-12-13T04:40:25.905Z,22.40
2022-12-13T04:42:54.279Z,21.15
2022-12-13T04:45:22.175Z,21.98
2022-12-13T04:47:48.969Z,21.85
2022-12-13T04:50:21.991Z,22.10
2022-12-13T04:53:00.309Z,21.73
2022-12-13T04:55:27.948Z,21.63
2022-12-13T04:58:01.196Z,21.23
2022-12-13T05:00:30.599Z,20.02
2022-12-13T05:02:59.218Z,22.23
2022-12-13T05:05:28.761Z,21.98
2022-12-13T05:08:03.210Z,20.38
2022-12-13T05:10:37.775Z,21.00
2022-12-13T05:13:08.232Z,20.60
2022-12-13T05:15:35.112Z,20.90
2022-12-13T05:18:10.129Z,22.02
2022-12-13T05:20:41.540Z,20.02
2022-12-13T05:23:09.852Z,21.55
2022-12-13T05:25:36.807Z,20.27
2022-12-13T05:28:28.640Z,21.25
2022-12-13T05:30:51.300Z,19.98
2022-12-13T05:33:18.446Z,21.88
2022-12-13T05:35:45.490Z,22.08
2022-12-13T05:38:13.768Z,21.55
2022-12-13T05:40:40.963Z,21.20
2022-12-13T05:43:21.822Z,20.67
2022-12-13T05:48:24.652Z,21.58
2022-12-13T05:51:11.185Z,22.23
2022-12-13T05:53:42.558Z,20.17
2022-12-13T05:56:14.579Z,21.40
2022-12-13T05:58:53.496Z,16.10
2022-12-13T06:01:20.863Z,21.08
2022-12-13T06:03:53.774Z,20.23
2022-12-13T06:06:23.119Z,21.55
2022-12-13T06:08:51.453Z,21.58
2022-12-13T06:11:31.126Z,20.70
2022-12-13T06:14:00.640Z,20.55
2022-12-13T06:16:28.721Z,20.60
2022-12-13T06:19:04.146Z,22.15
2022-12-13T06:21:41.788Z,20.98
2022-12-13T06:24:24.031Z,21.63
2022-12-13T06:26:51.723Z,21.52
2022-12-13T06:29:23.149Z,21.40
2022-12-13T06:32:03.087Z,19.92
2022-12-13T06:34:32.850Z,21.00
2022-12-13T06:37:01.046Z,21.08
2022-12-13T06:39:32.996Z,22.88
2022-12-13T06:42:01.246Z,22.35
2022-12-13T06:44:28.245Z,21.85
2022-12-13T06:47:11.914Z,22.98
2022-12-13T06:49:41.543Z,22.33
2022-12-13T06:52:13.457Z,23.30
2022-12-13T06:54:42.088Z,23.75
2022-12-13T06:57:10.907Z,22.33
2022-12-13T06:59:37.797Z,23.00
2022-12-13T07:02:04.894Z,22.27
2022-12-13T07:04:35.010Z,21.58
2022-12-13T07:07:25.108Z,22.00
2022-12-13T07:09:56.416Z,22.88
2022-12-13T07:12:36.040Z,21.83
2022-12-13T07:15:16.193Z,22.10
2022-12-13T07:17:51.965Z,16.80
2022-12-13T07:20:44.462Z,20.92
2022-12-13T07:23:15.537Z,22.67
2022-12-13T07:25:51.221Z,22.58
2022-12-13T07:28:18.149Z,23.90
2022-12-13T07:30:44.912Z,22.85
2022-12-13T07:33:11.721Z,23.23
2022-12-13T07:35:55.509Z,24.08
2022-12-13T07:38:22.816Z,22.88
2022-12-13T07:41:59.836Z,22.98
2022-12-13T07:44:59.670Z,23.90
2022-12-13T07:50:37.370Z,22.42
2022-12-13T07:53:05.727Z,24.58
2022-12-13T07:55:42.367Z,22.55
2022-12-13T07:58:21.672Z,22.67
2022-12-13T08:00:51.432Z,23.45
2022-12-13T08:03:24.640Z,22.95
2022-12-13T08:05:59.055Z,24.15
2022-12-13T08:08:49.640Z,22.75
2022-12-13T08:11:23.920Z,23.58
2022-12-13T08:13:58.734Z,22.83
2022-12-13T08:16:34.099Z,25.38
2022-12-13T08:19:08.989Z,26.48
2022-12-13T08:25:07.722Z,25.42
2022-12-13T08:27:45.444Z,25.20
2022-12-13T08:30:18.915Z,25.33
2022-12-13T08:34:24.391Z,26.23
2022-12-13T08:42:36.098Z,27.77
2022-12-13T08:45:52.085Z,26.90
2022-12-13T08:48:23.182Z,28.73
2022-12-13T08:54:31.024Z,28.65
2022-12-13T08:57:20.474Z,28.00
2022-12-13T09:00:11.957Z,27.08
2022-12-13T09:14:52.958Z,28.85
2022-12-13T09:21:11.296Z,29.13
2022-12-13T09:23:45.727Z,30.55
2022-12-13T09:26:27.101Z,31.25
2022-12-13T09:35:50.133Z,31.00
2022-12-13T09:38:20.496Z,31.58
2022-12-13T09:40:58.300Z,30.15
2022-12-13T09:44:04.003Z,30.73
2022-12-13T09:49:52.584Z,30.35
2022-12-13T09:55:30.693Z,30.25
2022-12-13T10:05:48.989Z,31.67
2022-12-13T10:08:32.296Z,29.27
2022-12-13T10:11:14.020Z,29.65
2022-12-13T10:14:11.491Z,30.52
2022-12-13T10:17:15.643Z,30.77
2022-12-13T10:19:52.164Z,21.67
2022-12-13T10:22:41.853Z,30.17
2022-12-13T10:25:45.118Z,30.17
2022-12-13T10:28:14.442Z,30.48
2022-12-13T10:30:52.594Z,30.92
2022-12-13T10:33:24.386Z,29.38
2022-12-13T10:36:09.866Z,30.98
2022-12-13T10:38:38.981Z,30.60
2022-12-13T10:41:26.902Z,32.53
2022-12-13T10:44:18.494Z,30.45
2022-12-13T10:46:52.885Z,31.48
2022-12-13T10:49:22.622Z,32.35
2022-12-13T10:51:50.201Z,31.00
2022-12-13T10:54:27.811Z,30.63
2022-12-13T10:56:57.843Z,31.15
2022-12-13T10:59:30.203Z,31.08
2022-12-13T11:01:57.102Z,30.23
2022-12-13T11:04:30.155Z,32.58
2022-12-13T11:06:58.480Z,29.80
2022-12-13T11:09:29.039Z,30.05
2022-12-13T11:12:14.901Z,30.73
2022-12-13T11:14:55.824Z,29.48
2022-12-13T11:17:30.147Z,28.15
2022-12-13T11:20:00.380Z,27.85
2022-12-13T11:22:37.978Z,30.10
2022-12-13T11:25:31.279Z,27.63
2022-12-13T11:28:26.864Z,27.60
2022-12-13T11:31:07.876Z,27.85
2022-12-13T11:33:48.395Z,29.02
2022-12-13T11:36:30.331Z,27.88
2022-12-13T11:43:04.840Z,29.92
2022-12-13T11:46:32.337Z,28.13
2022-12-13T11:52:45.559Z,27.90
2022-12-13T12:13:50.786Z,27.70
2022-12-13T12:34:56.816Z,19.05
2022-12-13T12:44:34.056Z,19.90
2022-12-13T14:10:36.771Z,17.35
2022-12-13T14:17:14.851Z,17.95
2022-12-13T14:20:15.794Z,18.55
2022-12-13T14:22:50.956Z,18.65
2022-12-13T14:25:55.366Z,18.77
2022-12-13T14:28:35.320Z,19.13
2022-12-13T14:31:03.921Z,19.95
2022-12-13T14:33:39.232Z,20.42
2022-12-13T14:36:18.739Z,20.23
2022-12-13T14:41:17.901Z,20.73
2022-12-13T14:43:50.229Z,20.95
2022-12-13T14:46:54.101Z,23.35
2022-12-13T14:49:22.274Z,21.48
2022-12-13T14:51:56.554Z,22.60
2022-12-13T14:54:45.468Z,23.63
2022-12-13T15:02:39.208Z,22.58
2022-12-13T15:04:16.895Z,22.83
2022-12-13T15:09:38.276Z,23.45
2022-12-13T15:12:23.857Z,23.60
2022-12-13T15:14:57.638Z,23.30
2022-12-13T15:17:33.874Z,25.35
2022-12-13T15:20:27.151Z,25.27
2022-12-13T15:24:01.046Z,23.80
2022-12-13T15:36:28.514Z,23.23
2022-12-13T15:39:01.367Z,24.58
2022-12-13T15:41:31.475Z,24.58
2022-12-13T15:47:06.420Z,25.38
2022-12-13T15:49:44.333Z,24.75
2022-12-13T15:52:26.394Z,27.20
2022-12-13T15:54:57.815Z,28.70
2022-12-13T15:57:41.493Z,24.98
2022-12-13T16:00:31.666Z,31.35
2022-12-13T16:03:11.641Z,27.45
2022-12-13T16:06:33.090Z,28.63
2022-12-13T16:09:05.144Z,27.40
2022-12-13T16:11:38.426Z,27.95
2022-12-13T16:15:09.298Z,28.40
2022-12-13T17:05:26.924Z,28.75
2022-12-13T17:49:22.201Z,29.55
2022-12-13T18:04:54.869Z,28.77
2022-12-13T18:22:59.340Z,29.40
2022-12-13T18:29:55.412Z,28.17
2022-12-13T18:31:59.181Z,28.92
2022-12-13T18:58:48.661Z,30.80
2022-12-13T19:12:27.537Z,29.40
2022-12-13T19:22:47.338Z,29.00
2022-12-13T19:43:57.818Z,30.42
2022-12-13T19:50:24.693Z,33.28
2022-12-13T19:53:01.723Z,32.22
2022-12-13T19:55:54.946Z,31.33
2022-12-13T20:01:35.440Z,32.15
2022-12-13T20:04:27.142Z,31.77
2022-12-13T20:07:28.639Z,31.25
2022-12-13T20:10:19.079Z,30.95
2022-12-13T20:12:52.762Z,22.63
2022-12-13T20:15:19.957Z,31.55
2022-12-13T20:18:14.834Z,30.70
2022-12-13T20:21:12.984Z,30.35
2022-12-13T20:26:42.006Z,31.73
2022-12-13T20:29:14.223Z,29.60
2022-12-13T20:31:55.526Z,32.05
2022-12-13T20:34:28.338Z,31.35
2022-12-13T20:36:58.161Z,29.58
2022-12-13T20:39:34.669Z,29.95
2022-12-13T20:42:16.106Z,28.83
2022-12-13T20:44:43.279Z,31.15
2022-12-13T20:47:17.023Z,29.80
2022-12-13T20:49:49.496Z,30.85
2022-12-13T20:52:19.727Z,29.98
2022-12-13T20:54:50.865Z,21.20
2022-12-13T20:57:25.496Z,29.75
2022-12-13T20:59:55.268Z,31.45
2022-12-13T21:02:33.420Z,29.70
2022-12-13T21:05:07.617Z,31.20
2022-12-13T21:07:42.401Z,32.83
2022-12-13T21:27:15.466Z,31.08
2022-12-13T21:33:27.886Z,31.48
2022-12-13T21:37:31.202Z,32.67
2022-12-13T21:40:33.649Z,32.03
2022-12-13T21:43:39.219Z,31.17
2022-12-13T21:49:31.132Z,32.25
2022-12-13T21:52:49.797Z,32.63
2022-12-13T21:56:02.250Z,32.92
2022-12-13T21:59:02.374Z,31.17
2022-12-13T22:02:08.771Z,33.30
2022-12-13T22:05:19.164Z,33.17
2022-12-13T22:08:35.053Z,33.83
2022-12-13T22:11:48.493Z,32.58
2022-12-13T22:17:47.108Z,32.20
2022-12-13T22:20:29.910Z,31.70
2022-12-13T22:29:39.002Z,35.50
2022-12-13T22:36:17.116Z,32.75
2022-12-13T22:39:32.774Z,33.70
2022-12-13T22:42:55.790Z,32.88
2022-12-13T22:45:48.722Z,32.40
2022-12-13T22:51:30.242Z,32.00
2022-12-13T22:54:35.256Z,33.35
2022-12-13T22:57:07.669Z,33.22
2022-12-13T22:59:57.292Z,33.83
2022-12-13T23:02:40.109Z,34.10
2022-12-13T23:05:29.196Z,33.85
2022-12-13T23:08:13.953Z,33.28
2022-12-13T23:11:08.979Z,32.75
2022-12-13T23:16:52.666Z,31.88
2022-12-13T23:20:03.424Z,22.30
2022-12-13T23:23:37.316Z,32.75
2022-12-13T23:26:17.902Z,31.10
2022-12-13T23:29:10.594Z,31.42
2022-12-13T23:31:49.425Z,31.73
2022-12-13T23:34:22.357Z,32.47
2022-12-13T23:37:29.518Z,34.22
2022-12-13T23:40:45.387Z,31.77
2022-12-13T23:46:49.263Z,29.92
2022-12-13T23:49:23.532Z,30.27
2022-12-13T23:51:58.008Z,30.80
2022-12-13T23:54:31.416Z,31.58
